sensor_id;sensor_type;location;lat;lon;timestamp;P1;durP1;ratioP1;P2;durP2;ratioP2
61915;SDS011;47868;51.326;6.550;2023-01-24T00:01:07;15.00;;;12.50;;
61915;SDS011;47868;51.326;6.550;2023-01-24T00:03:33;15.07;;;12.65;;
61915;SDS011;47868;51.326;6.550;2023-01-24T00:05:58;16.15;;;13.43;;
61915;SDS011;47868;51.326;6.550;2023-01-24T00:08:24;18.30;;;14.63;;
61915;SDS011;47868;51.326;6.550;2023-01-24T00:11:09;18.40;;;13.90;;
61915;SDS011;47868;51.326;6.550;2023-01-24T00:13:36;16.85;;;13.73;;
61915;SDS011;47868;51.326;6.550;2023-01-24T00:18:32;18.48;;;13.95;;
61915;SDS011;47868;51.326;6.550;2023-01-24T00:21:02;16.70;;;13.70;;
61915;SDS011;47868;51.326;6.550;2023-01-24T00:23:30;15.90;;;13.20;;
61915;SDS011;47868;51.326;6.550;2023-01-24T00:25:56;15.07;;;12.80;;
61915;SDS011;47868;51.326;6.550;2023-01-24T00:28:21;15.38;;;12.80;;
61915;SDS011;47868;51.326;6.550;2023-01-24T00:30:47;16.17;;;13.13;;
61915;SDS011;47868;51.326;6.550;2023-01-24T00:33:12;16.30;;;12.93;;
61915;SDS011;47868;51.326;6.550;2023-01-24T00:35:38;16.70;;;13.52;;
61915;SDS011;47868;51.326;6.550;2023-01-24T00:38:04;18.38;;;13.07;;
61915;SDS011;47868;51.326;6.550;2023-01-24T00:40:29;15.38;;;12.63;;
61915;SDS011;47868;51.326;6.550;2023-01-24T00:42:55;15.40;;;13.02;;
61915;SDS011;47868;51.326;6.550;2023-01-24T00:45:20;15.70;;;12.48;;
61915;SDS011;47868;51.326;6.550;2023-01-24T00:47:46;16.75;;;13.55;;
61915;SDS011;47868;51.326;6.550;2023-01-24T00:50:11;14.77;;;12.13;;
61915;SDS011;47868;51.326;6.550;2023-01-24T00:52:37;14.98;;;12.82;;
61915;SDS011;47868;51.326;6.550;2023-01-24T00:55:03;17.58;;;13.57;;
61915;SDS011;47868;51.326;6.550;2023-01-24T00:57:29;14.85;;;11.98;;
61915;SDS011;47868;51.326;6.550;2023-01-24T00:59:54;15.27;;;12.65;;
61915;SDS011;47868;51.326;6.550;2023-01-24T01:02:20;18.10;;;13.40;;
61915;SDS011;47868;51.326;6.550;2023-01-24T01:04:45;15.05;;;13.20;;
61915;SDS011;47868;51.326;6.550;2023-01-24T01:07:11;15.13;;;13.23;;
61915;SDS011;47868;51.326;6.550;2023-01-24T01:09:37;16.20;;;11.75;;
61915;SDS011;47868;51.326;6.550;2023-01-24T01:12:02;16.10;;;12.77;;
61915;SDS011;47868;51.326;6.550;2023-01-24T01:14:28;14.75;;;12.35;;
61915;SDS011;47868;51.326;6.550;2023-01-24T01:16:54;16.90;;;13.20;;
61915;SDS011;47868;51.326;6.550;2023-01-24T01:19:19;14.85;;;11.88;;
61915;SDS011;47868;51.326;6.550;2023-01-24T01:21:45;14.93;;;12.25;;
61915;SDS011;47868;51.326;6.550;2023-01-24T01:24:10;12.95;;;11.57;;
61915;SDS011;47868;51.326;6.550;2023-01-24T01:26:36;16.42;;;12.70;;
61915;SDS011;47868;51.326;6.550;2023-01-24T01:29:02;14.45;;;11.98;;
61915;SDS011;47868;51.326;6.550;2023-01-24T01:31:27;15.02;;;12.93;;
61915;SDS011;47868;51.326;6.550;2023-01-24T01:33:53;13.48;;;11.73;;
61915;SDS011;47868;51.326;6.550;2023-01-24T01:36:18;15.27;;;12.52;;
61915;SDS011;47868;51.326;6.550;2023-01-24T01:38:44;16.33;;;12.63;;
61915;SDS011;47868;51.326;6.550;2023-01-24T01:41:13;14.60;;;12.57;;
61915;SDS011;47868;51.326;6.550;2023-01-24T01:43:39;14.93;;;11.93;;
61915;SDS011;47868;51.326;6.550;2023-01-24T01:46:25;14.05;;;11.60;;
61915;SDS011;47868;51.326;6.550;2023-01-24T01:48:53;13.48;;;11.90;;
61915;SDS011;47868;51.326;6.550;2023-01-24T01:51:25;15.98;;;12.68;;
61915;SDS011;47868;51.326;6.550;2023-01-24T01:54:09;16.20;;;12.73;;
61915;SDS011;47868;51.326;6.550;2023-01-24T01:56:39;15.13;;;12.45;;
61915;SDS011;47868;51.326;6.550;2023-01-24T01:59:15;16.33;;;12.50;;
61915;SDS011;47868;51.326;6.550;2023-01-24T02:01:44;14.02;;;11.75;;
61915;SDS011;47868;51.326;6.550;2023-01-24T02:04:22;13.25;;;11.38;;
61915;SDS011;47868;51.326;6.550;2023-01-24T02:09:44;12.52;;;10.40;;
61915;SDS011;47868;51.326;6.550;2023-01-24T02:12:15;14.10;;;10.80;;
61915;SDS011;47868;51.326;6.550;2023-01-24T02:14:45;12.30;;;10.73;;
61915;SDS011;47868;51.326;6.550;2023-01-24T02:17:32;12.18;;;10.02;;
61915;SDS011;47868;51.326;6.550;2023-01-24T02:28:17;13.15;;;10.45;;
61915;SDS011;47868;51.326;6.550;2023-01-24T02:30:43;14.18;;;10.38;;
61915;SDS011;47868;51.326;6.550;2023-01-24T02:33:09;11.30;;;9.90;;
61915;SDS011;47868;51.326;6.550;2023-01-24T02:35:36;10.93;;;9.68;;
61915;SDS011;47868;51.326;6.550;2023-01-24T02:38:03;11.32;;;9.82;;
61915;SDS011;47868;51.326;6.550;2023-01-24T02:40:30;13.90;;;11.25;;
61915;SDS011;47868;51.326;6.550;2023-01-24T02:42:58;11.60;;;9.90;;
61915;SDS011;47868;51.326;6.550;2023-01-24T02:45:27;12.32;;;10.40;;
61915;SDS011;47868;51.326;6.550;2023-01-24T02:47:55;14.05;;;11.13;;
61915;SDS011;47868;51.326;6.550;2023-01-24T02:50:22;12.05;;;10.15;;
61915;SDS011;47868;51.326;6.550;2023-01-24T02:52:51;11.27;;;9.27;;
61915;SDS011;47868;51.326;6.550;2023-01-24T02:55:35;13.27;;;10.75;;
61915;SDS011;47868;51.326;6.550;2023-01-24T02:58:21;11.52;;;9.43;;
61915;SDS011;47868;51.326;6.550;2023-01-24T03:00:47;12.48;;;10.10;;
61915;SDS011;47868;51.326;6.550;2023-01-24T03:03:12;13.85;;;10.13;;
61915;SDS011;47868;51.326;6.550;2023-01-24T03:05:39;11.63;;;9.50;;
61915;SDS011;47868;51.326;6.550;2023-01-24T03:08:07;12.20;;;9.82;;
61915;SDS011;47868;51.326;6.550;2023-01-24T03:10:33;12.55;;;10.25;;
61915;SDS011;47868;51.326;6.550;2023-01-24T03:12:59;11.60;;;9.82;;
61915;SDS011;47868;51.326;6.550;2023-01-24T03:15:44;15.00;;;10.55;;
61915;SDS011;47868;51.326;6.550;2023-01-24T03:18:29;13.05;;;9.13;;
61915;SDS011;47868;51.326;6.550;2023-01-24T03:21:13;11.68;;;9.90;;
61915;SDS011;47868;51.326;6.550;2023-01-24T03:23:57;10.02;;;8.95;;
61915;SDS011;47868;51.326;6.550;2023-01-24T03:26:41;11.55;;;9.25;;
61915;SDS011;47868;51.326;6.550;2023-01-24T03:29:25;12.43;;;9.88;;
61915;SDS011;47868;51.326;6.550;2023-01-24T03:32:09;10.55;;;8.48;;
61915;SDS011;47868;51.326;6.550;2023-01-24T03:34:53;9.30;;;8.30;;
61915;SDS011;47868;51.326;6.550;2023-01-24T03:37:20;9.07;;;8.10;;
61915;SDS011;47868;51.326;6.550;2023-01-24T03:40:07;8.88;;;7.85;;
61915;SDS011;47868;51.326;6.550;2023-01-24T03:42:36;9.32;;;8.43;;
61915;SDS011;47868;51.326;6.550;2023-01-24T03:45:16;11.27;;;8.52;;
61915;SDS011;47868;51.326;6.550;2023-01-24T03:47:48;10.43;;;8.82;;
61915;SDS011;47868;51.326;6.550;2023-01-24T03:50:20;10.35;;;8.38;;
61915;SDS011;47868;51.326;6.550;2023-01-24T03:53:26;9.27;;;8.02;;
61915;SDS011;47868;51.326;6.550;2023-01-24T03:55:54;9.05;;;7.50;;
61915;SDS011;47868;51.326;6.550;2023-01-24T03:58:21;9.65;;;8.27;;
61915;SDS011;47868;51.326;6.550;2023-01-24T04:00:48;9.57;;;8.15;;
61915;SDS011;47868;51.326;6.550;2023-01-24T04:03:13;8.85;;;7.95;;
61915;SDS011;47868;51.326;6.550;2023-01-24T04:05:39;8.70;;;7.63;;
61915;SDS011;47868;51.326;6.550;2023-01-24T04:08:05;8.45;;;7.55;;
61915;SDS011;47868;51.326;6.550;2023-01-24T04:10:31;9.80;;;7.95;;
61915;SDS011;47868;51.326;6.550;2023-01-24T04:12:57;10.88;;;7.97;;
61915;SDS011;47868;51.326;6.550;2023-01-24T04:15:24;9.10;;;8.20;;
61915;SDS011;47868;51.326;6.550;2023-01-24T04:17:54;8.23;;;7.20;;
61915;SDS011;47868;51.326;6.550;2023-01-24T04:20:21;8.63;;;7.72;;
61915;SDS011;47868;51.326;6.550;2023-01-24T04:22:47;9.05;;;8.15;;
61915;SDS011;47868;51.326;6.550;2023-01-24T04:25:13;9.45;;;8.05;;
61915;SDS011;47868;51.326;6.550;2023-01-24T04:27:38;8.65;;;7.75;;
61915;SDS011;47868;51.326;6.550;2023-01-24T04:30:05;9.43;;;8.02;;
61915;SDS011;47868;51.326;6.550;2023-01-24T04:32:32;8.43;;;7.53;;
61915;SDS011;47868;51.326;6.550;2023-01-24T04:34:58;9.60;;;8.60;;
61915;SDS011;47868;51.326;6.550;2023-01-24T04:37:25;9.15;;;8.25;;
61915;SDS011;47868;51.326;6.550;2023-01-24T04:39:51;10.07;;;8.68;;
61915;SDS011;47868;51.326;6.550;2023-01-24T04:42:17;9.77;;;8.27;;
61915;SDS011;47868;51.326;6.550;2023-01-24T04:44:43;9.80;;;7.85;;
61915;SDS011;47868;51.326;6.550;2023-01-24T04:47:08;9.63;;;8.05;;
61915;SDS011;47868;51.326;6.550;2023-01-24T04:49:34;9.27;;;7.60;;
61915;SDS011;47868;51.326;6.550;2023-01-24T04:51:59;8.77;;;7.93;;
61915;SDS011;47868;51.326;6.550;2023-01-24T04:54:25;9.95;;;8.07;;
61915;SDS011;47868;51.326;6.550;2023-01-24T04:56:50;8.52;;;7.53;;
61915;SDS011;47868;51.326;6.550;2023-01-24T04:59:16;9.32;;;7.95;;
61915;SDS011;47868;51.326;6.550;2023-01-24T05:01:42;9.30;;;8.10;;
61915;SDS011;47868;51.326;6.550;2023-01-24T05:04:07;9.60;;;8.60;;
61915;SDS011;47868;51.326;6.550;2023-01-24T05:06:33;9.13;;;7.95;;
61915;SDS011;47868;51.326;6.550;2023-01-24T05:08:59;9.57;;;8.20;;
61915;SDS011;47868;51.326;6.550;2023-01-24T05:11:25;12.07;;;8.05;;
61915;SDS011;47868;51.326;6.550;2023-01-24T05:13:51;9.82;;;8.50;;
61915;SDS011;47868;51.326;6.550;2023-01-24T05:16:17;10.02;;;8.05;;
61915;SDS011;47868;51.326;6.550;2023-01-24T05:18:43;10.77;;;8.10;;
61915;SDS011;47868;51.326;6.550;2023-01-24T05:21:10;11.80;;;9.88;;
61915;SDS011;47868;51.326;6.550;2023-01-24T05:23:38;10.90;;;9.07;;
61915;SDS011;47868;51.326;6.550;2023-01-24T05:26:04;11.88;;;9.20;;
61915;SDS011;47868;51.326;6.550;2023-01-24T05:28:30;11.35;;;9.93;;
61915;SDS011;47868;51.326;6.550;2023-01-24T05:30:59;10.40;;;8.88;;
61915;SDS011;47868;51.326;6.550;2023-01-24T05:33:26;10.25;;;8.40;;
61915;SDS011;47868;51.326;6.550;2023-01-24T05:36:01;10.30;;;8.93;;
61915;SDS011;47868;51.326;6.550;2023-01-24T05:38:29;9.68;;;8.68;;
61915;SDS011;47868;51.326;6.550;2023-01-24T05:40:58;11.15;;;8.98;;
61915;SDS011;47868;51.326;6.550;2023-01-24T05:43:28;9.93;;;8.60;;
61915;SDS011;47868;51.326;6.550;2023-01-24T05:46:02;10.40;;;8.40;;
61915;SDS011;47868;51.326;6.550;2023-01-24T05:48:29;14.18;;;8.60;;
61915;SDS011;47868;51.326;6.550;2023-01-24T05:50:58;9.55;;;8.18;;
61915;SDS011;47868;51.326;6.550;2023-01-24T05:53:26;9.35;;;8.38;;
61915;SDS011;47868;51.326;6.550;2023-01-24T05:55:59;9.18;;;8.02;;
61915;SDS011;47868;51.326;6.550;2023-01-24T05:58:27;9.40;;;8.40;;
61915;SDS011;47868;51.326;6.550;2023-01-24T06:00:53;9.82;;;8.18;;
61915;SDS011;47868;51.326;6.550;2023-01-24T06:03:20;9.88;;;8.43;;
61915;SDS011;47868;51.326;6.550;2023-01-24T06:05:46;10.52;;;8.10;;
61915;SDS011;47868;51.326;6.550;2023-01-24T06:08:14;10.55;;;8.43;;
61915;SDS011;47868;51.326;6.550;2023-01-24T06:10:41;12.50;;;9.25;;
61915;SDS011;47868;51.326;6.550;2023-01-24T06:13:07;10.63;;;8.95;;
61915;SDS011;47868;51.326;6.550;2023-01-24T06:15:33;10.10;;;8.52;;
61915;SDS011;47868;51.326;6.550;2023-01-24T06:17:58;11.65;;;9.48;;
61915;SDS011;47868;51.326;6.550;2023-01-24T06:20:24;11.93;;;9.05;;
61915;SDS011;47868;51.326;6.550;2023-01-24T06:22:51;10.65;;;9.50;;
61915;SDS011;47868;51.326;6.550;2023-01-24T06:25:20;9.85;;;8.75;;
61915;SDS011;47868;51.326;6.550;2023-01-24T06:27:47;10.48;;;9.18;;
61915;SDS011;47868;51.326;6.550;2023-01-24T06:30:14;11.23;;;9.27;;
61915;SDS011;47868;51.326;6.550;2023-01-24T06:35:33;11.82;;;9.65;;
61915;SDS011;47868;51.326;6.550;2023-01-24T06:38:14;13.43;;;9.95;;
61915;SDS011;47868;51.326;6.550;2023-01-24T06:40:47;10.85;;;9.27;;
61915;SDS011;47868;51.326;6.550;2023-01-24T06:43:24;11.40;;;9.68;;
61915;SDS011;47868;51.326;6.550;2023-01-24T06:45:50;13.25;;;10.00;;
61915;SDS011;47868;51.326;6.550;2023-01-24T06:48:16;12.48;;;9.93;;
61915;SDS011;47868;51.326;6.550;2023-01-24T06:50:42;15.00;;;10.30;;
61915;SDS011;47868;51.326;6.550;2023-01-24T06:53:08;12.15;;;10.50;;
61915;SDS011;47868;51.326;6.550;2023-01-24T06:55:34;12.55;;;10.77;;
61915;SDS011;47868;51.326;6.550;2023-01-24T06:58:00;12.00;;;9.90;;
61915;SDS011;47868;51.326;6.550;2023-01-24T07:00:27;11.18;;;10.00;;
61915;SDS011;47868;51.326;6.550;2023-01-24T07:03:00;12.38;;;10.27;;
61915;SDS011;47868;51.326;6.550;2023-01-24T07:05:27;13.00;;;10.52;;
61915;SDS011;47868;51.326;6.550;2023-01-24T07:07:53;12.25;;;10.93;;
61915;SDS011;47868;51.326;6.550;2023-01-24T07:10:20;15.32;;;11.32;;
61915;SDS011;47868;51.326;6.550;2023-01-24T07:12:46;13.38;;;10.73;;
61915;SDS011;47868;51.326;6.550;2023-01-24T07:15:12;12.65;;;11.05;;
61915;SDS011;47868;51.326;6.550;2023-01-24T07:17:38;13.07;;;10.63;;
61915;SDS011;47868;51.326;6.550;2023-01-24T07:20:04;12.27;;;10.57;;
61915;SDS011;47868;51.326;6.550;2023-01-24T07:22:31;13.50;;;10.73;;
61915;SDS011;47868;51.326;6.550;2023-01-24T07:24:57;14.60;;;11.98;;
61915;SDS011;47868;51.326;6.550;2023-01-24T07:27:23;12.88;;;11.43;;
61915;SDS011;47868;51.326;6.550;2023-01-24T07:29:49;12.40;;;10.90;;
61915;SDS011;47868;51.326;6.550;2023-01-24T07:32:14;12.45;;;10.55;;
61915;SDS011;47868;51.326;6.550;2023-01-24T07:34:40;13.35;;;11.05;;
61915;SDS011;47868;51.326;6.550;2023-01-24T07:37:06;14.85;;;12.27;;
61915;SDS011;47868;51.326;6.550;2023-01-24T07:39:32;14.20;;;11.23;;
61915;SDS011;47868;51.326;6.550;2023-01-24T07:41:58;16.75;;;11.82;;
61915;SDS011;47868;51.326;6.550;2023-01-24T07:44:24;13.02;;;11.25;;
61915;SDS011;47868;51.326;6.550;2023-01-24T07:46:49;14.50;;;11.90;;
61915;SDS011;47868;51.326;6.550;2023-01-24T07:49:15;17.17;;;12.00;;
61915;SDS011;47868;51.326;6.550;2023-01-24T07:51:41;15.73;;;12.98;;
61915;SDS011;47868;51.326;6.550;2023-01-24T07:54:07;15.70;;;11.70;;
61915;SDS011;47868;51.326;6.550;2023-01-24T07:56:32;14.98;;;12.57;;
61915;SDS011;47868;51.326;6.550;2023-01-24T07:58:58;18.50;;;12.35;;
61915;SDS011;47868;51.326;6.550;2023-01-24T08:01:24;15.23;;;12.00;;
61915;SDS011;47868;51.326;6.550;2023-01-24T08:03:53;14.55;;;11.60;;
61915;SDS011;47868;51.326;6.550;2023-01-24T08:06:22;16.95;;;12.80;;
61915;SDS011;47868;51.326;6.550;2023-01-24T08:08:49;17.08;;;12.80;;
61915;SDS011;47868;51.326;6.550;2023-01-24T08:11:15;13.18;;;11.45;;
61915;SDS011;47868;51.326;6.550;2023-01-24T08:13:43;20.95;;;17.58;;
61915;SDS011;47868;51.326;6.550;2023-01-24T08:16:09;20.27;;;16.00;;
61915;SDS011;47868;51.326;6.550;2023-01-24T08:18:36;14.38;;;12.43;;
61915;SDS011;47868;51.326;6.550;2023-01-24T08:21:02;17.02;;;12.80;;
61915;SDS011;47868;51.326;6.550;2023-01-24T08:23:29;14.40;;;12.80;;
61915;SDS011;47868;51.326;6.550;2023-01-24T08:25:56;16.15;;;12.57;;
61915;SDS011;47868;51.326;6.550;2023-01-24T08:28:23;15.35;;;12.25;;
61915;SDS011;47868;51.326;6.550;2023-01-24T08:30:49;15.80;;;12.73;;
61915;SDS011;47868;51.326;6.550;2023-01-24T08:33:14;15.27;;;11.98;;
61915;SDS011;47868;51.326;6.550;2023-01-24T08:35:44;15.27;;;12.13;;
61915;SDS011;47868;51.326;6.550;2023-01-24T08:38:11;15.85;;;12.68;;
61915;SDS011;47868;51.326;6.550;2023-01-24T08:40:37;16.75;;;12.48;;
61915;SDS011;47868;51.326;6.550;2023-01-24T08:43:03;18.13;;;12.95;;
61915;SDS011;47868;51.326;6.550;2023-01-24T08:45:28;15.88;;;12.20;;
61915;SDS011;47868;51.326;6.550;2023-01-24T08:47:55;13.52;;;11.60;;
61915;SDS011;47868;51.326;6.550;2023-01-24T08:50:20;12.93;;;11.50;;
61915;SDS011;47868;51.326;6.550;2023-01-24T08:52:47;14.13;;;11.80;;
61915;SDS011;47868;51.326;6.550;2023-01-24T08:55:13;12.77;;;11.00;;
61915;SDS011;47868;51.326;6.550;2023-01-24T08:57:39;13.82;;;11.35;;
61915;SDS011;47868;51.326;6.550;2023-01-24T09:00:05;16.30;;;12.63;;
61915;SDS011;47868;51.326;6.550;2023-01-24T09:02:31;19.60;;;11.55;;
61915;SDS011;47868;51.326;6.550;2023-01-24T09:04:59;12.85;;;10.93;;
61915;SDS011;47868;51.326;6.550;2023-01-24T09:07:25;13.68;;;11.70;;
61915;SDS011;47868;51.326;6.550;2023-01-24T09:09:50;16.40;;;10.95;;
61915;SDS011;47868;51.326;6.550;2023-01-24T09:12:16;13.45;;;11.90;;
61915;SDS011;47868;51.326;6.550;2023-01-24T09:14:42;13.50;;;11.20;;
61915;SDS011;47868;51.326;6.550;2023-01-24T09:17:07;13.80;;;11.30;;
61915;SDS011;47868;51.326;6.550;2023-01-24T09:19:33;11.23;;;10.13;;
61915;SDS011;47868;51.326;6.550;2023-01-24T09:21:58;13.68;;;10.70;;
61915;SDS011;47868;51.326;6.550;2023-01-24T09:24:24;13.13;;;11.13;;
61915;SDS011;47868;51.326;6.550;2023-01-24T09:26:50;13.73;;;11.98;;
61915;SDS011;47868;51.326;6.550;2023-01-24T09:29:16;14.33;;;12.07;;
61915;SDS011;47868;51.326;6.550;2023-01-24T09:31:41;11.67;;;10.47;;
61915;SDS011;47868;51.326;6.550;2023-01-24T09:34:07;15.00;;;12.25;;
61915;SDS011;47868;51.326;6.550;2023-01-24T09:36:33;14.55;;;11.55;;
61915;SDS011;47868;51.326;6.550;2023-01-24T09:38:58;13.20;;;10.93;;
61915;SDS011;47868;51.326;6.550;2023-01-24T09:44:29;13.05;;;11.13;;
61915;SDS011;47868;51.326;6.550;2023-01-24T09:46:58;11.45;;;10.25;;
61915;SDS011;47868;51.326;6.550;2023-01-24T09:49:34;13.88;;;10.75;;
61915;SDS011;47868;51.326;6.550;2023-01-24T09:52:06;12.70;;;11.30;;
61915;SDS011;47868;51.326;6.550;2023-01-24T09:54:38;15.50;;;10.82;;
61915;SDS011;47868;51.326;6.550;2023-01-24T09:57:32;15.85;;;11.23;;
61915;SDS011;47868;51.326;6.550;2023-01-24T10:00:17;14.85;;;11.05;;
61915;SDS011;47868;51.326;6.550;2023-01-24T10:02:48;12.85;;;10.43;;
61915;SDS011;47868;51.326;6.550;2023-01-24T10:05:14;13.65;;;10.13;;
61915;SDS011;47868;51.326;6.550;2023-01-24T10:10:28;10.73;;;9.45;;
61915;SDS011;47868;51.326;6.550;2023-01-24T10:13:06;14.57;;;9.95;;
61915;SDS011;47868;51.326;6.550;2023-01-24T10:23:49;10.57;;;9.48;;
61915;SDS011;47868;51.326;6.550;2023-01-24T10:26:32;11.82;;;10.57;;
61915;SDS011;47868;51.326;6.550;2023-01-24T10:29:09;13.70;;;10.48;;
61915;SDS011;47868;51.326;6.550;2023-01-24T10:31:39;12.93;;;9.43;;
61915;SDS011;47868;51.326;6.550;2023-01-24T10:34:20;11.95;;;10.75;;
61915;SDS011;47868;51.326;6.550;2023-01-24T10:36:54;13.07;;;11.27;;
61915;SDS011;47868;51.326;6.550;2023-01-24T10:39:30;13.60;;;12.20;;
61915;SDS011;47868;51.326;6.550;2023-01-24T10:41:56;13.50;;;11.25;;
61915;SDS011;47868;51.326;6.550;2023-01-24T10:49:40;14.35;;;12.18;;
61915;SDS011;47868;51.326;6.550;2023-01-24T10:52:09;11.98;;;10.25;;
61915;SDS011;47868;51.326;6.550;2023-01-24T10:54:43;12.27;;;9.40;;
61915;SDS011;47868;51.326;6.550;2023-01-24T11:00:03;15.35;;;11.38;;
61915;SDS011;47868;51.326;6.550;2023-01-24T11:02:46;12.82;;;10.27;;
61915;SDS011;47868;51.326;6.550;2023-01-24T11:05:14;11.07;;;9.25;;
61915;SDS011;47868;51.326;6.550;2023-01-24T11:07:44;12.27;;;9.35;;
61915;SDS011;47868;51.326;6.550;2023-01-24T11:10:30;10.48;;;9.15;;
61915;SDS011;47868;51.326;6.550;2023-01-24T11:13:27;10.07;;;8.85;;
61915;SDS011;47868;51.326;6.550;2023-01-24T11:16:03;11.10;;;9.82;;
61915;SDS011;47868;51.326;6.550;2023-01-24T11:18:58;13.20;;;10.93;;
61915;SDS011;47868;51.326;6.550;2023-01-24T11:21:25;13.52;;;9.88;;
61915;SDS011;47868;51.326;6.550;2023-01-24T11:27:02;12.52;;;9.70;;
61915;SDS011;47868;51.326;6.550;2023-01-24T11:29:42;14.55;;;9.60;;
61915;SDS011;47868;51.326;6.550;2023-01-24T11:32:51;17.25;;;10.05;;
61915;SDS011;47868;51.326;6.550;2023-01-24T11:35:18;13.65;;;9.63;;
61915;SDS011;47868;51.326;6.550;2023-01-24T11:43:34;12.57;;;11.02;;
61915;SDS011;47868;51.326;6.550;2023-01-24T11:46:16;11.38;;;9.48;;
61915;SDS011;47868;51.326;6.550;2023-01-24T11:57:16;13.70;;;11.65;;
61915;SDS011;47868;51.326;6.550;2023-01-24T12:08:11;10.05;;;9.05;;
61915;SDS011;47868;51.326;6.550;2023-01-24T12:16:47;13.55;;;8.70;;
61915;SDS011;47868;51.326;6.550;2023-01-24T12:21:53;10.57;;;8.70;;
61915;SDS011;47868;51.326;6.550;2023-01-24T12:24:24;11.98;;;9.60;;
61915;SDS011;47868;51.326;6.550;2023-01-24T12:26:54;10.75;;;9.57;;
61915;SDS011;47868;51.326;6.550;2023-01-24T12:29:38;13.02;;;11.13;;
61915;SDS011;47868;51.326;6.550;2023-01-24T12:40:42;12.48;;;8.85;;
61915;SDS011;47868;51.326;6.550;2023-01-24T12:43:18;15.75;;;8.75;;
61915;SDS011;47868;51.326;6.550;2023-01-24T12:46:37;9.52;;;8.40;;
61915;SDS011;47868;51.326;6.550;2023-01-24T12:48:45;10.68;;;8.68;;
61915;SDS011;47868;51.326;6.550;2023-01-24T12:59:25;13.95;;;11.98;;
61915;SDS011;47868;51.326;6.550;2023-01-24T13:05:03;19.38;;;13.48;;
61915;SDS011;47868;51.326;6.550;2023-01-24T13:13:13;16.70;;;14.20;;
61915;SDS011;47868;51.326;6.550;2023-01-24T13:15:58;19.75;;;15.30;;
61915;SDS011;47868;51.326;6.550;2023-01-24T13:18:53;22.08;;;15.52;;
61915;SDS011;47868;51.326;6.550;2023-01-24T13:21:40;17.58;;;15.57;;
61915;SDS011;47868;51.326;6.550;2023-01-24T13:29:59;13.32;;;10.52;;
61915;SDS011;47868;51.326;6.550;2023-01-24T13:32:36;13.35;;;10.95;;
61915;SDS011;47868;51.326;6.550;2023-01-24T13:35:13;12.88;;;11.13;;
61915;SDS011;47868;51.326;6.550;2023-01-24T13:37:47;12.90;;;11.55;;
61915;SDS011;47868;51.326;6.550;2023-01-24T13:40:22;14.45;;;12.30;;
61915;SDS011;47868;51.326;6.550;2023-01-24T13:42:48;15.88;;;11.38;;
61915;SDS011;47868;51.326;6.550;2023-01-24T13:47:50;13.77;;;12.35;;
61915;SDS011;47868;51.326;6.550;2023-01-24T13:50:20;12.32;;;11.02;;
61915;SDS011;47868;51.326;6.550;2023-01-24T13:52:48;12.50;;;10.13;;
61915;SDS011;47868;51.326;6.550;2023-01-24T13:57:44;14.20;;;12.23;;
61915;SDS011;47868;51.326;6.550;2023-01-24T14:10:37;19.25;;;15.52;;
61915;SDS011;47868;51.326;6.550;2023-01-24T14:16:11;20.15;;;16.88;;
61915;SDS011;47868;51.326;6.550;2023-01-24T14:18:59;18.08;;;15.65;;
61915;SDS011;47868;51.326;6.550;2023-01-24T14:27:48;18.40;;;15.18;;
61915;SDS011;47868;51.326;6.550;2023-01-24T14:36:23;21.30;;;17.75;;
61915;SDS011;47868;51.326;6.550;2023-01-24T14:41:58;19.55;;;15.60;;
61915;SDS011;47868;51.326;6.550;2023-01-24T14:46:58;17.25;;;15.40;;
61915;SDS011;47868;51.326;6.550;2023-01-24T14:51:56;17.70;;;15.43;;
61915;SDS011;47868;51.326;6.550;2023-01-24T14:54:22;19.13;;;15.75;;
61915;SDS011;47868;51.326;6.550;2023-01-24T14:56:49;23.60;;;14.75;;
61915;SDS011;47868;51.326;6.550;2023-01-24T14:59:16;13.88;;;12.48;;
61915;SDS011;47868;51.326;6.550;2023-01-24T15:01:43;14.65;;;13.07;;
61915;SDS011;47868;51.326;6.550;2023-01-24T15:04:26;16.10;;;12.95;;
61915;SDS011;47868;51.326;6.550;2023-01-24T15:07:06;14.95;;;13.35;;
61915;SDS011;47868;51.326;6.550;2023-01-24T15:09:39;16.05;;;14.38;;
61915;SDS011;47868;51.326;6.550;2023-01-24T15:14:50;18.27;;;14.90;;
61915;SDS011;47868;51.326;6.550;2023-01-24T15:17:18;15.98;;;14.38;;
61915;SDS011;47868;51.326;6.550;2023-01-24T15:19:49;16.58;;;14.00;;
61915;SDS011;47868;51.326;6.550;2023-01-24T15:22:21;16.50;;;14.00;;
61915;SDS011;47868;51.326;6.550;2023-01-24T15:24:49;15.82;;;14.18;;
61915;SDS011;47868;51.326;6.550;2023-01-24T15:27:30;20.85;;;13.13;;
61915;SDS011;47868;51.326;6.550;2023-01-24T15:32:37;13.98;;;12.52;;
61915;SDS011;47868;51.326;6.550;2023-01-24T15:40:57;17.52;;;12.88;;
61915;SDS011;47868;51.326;6.550;2023-01-24T15:43:25;16.35;;;13.55;;
61915;SDS011;47868;51.326;6.550;2023-01-24T15:46:13;17.27;;;12.43;;
61915;SDS011;47868;51.326;6.550;2023-01-24T15:51:42;13.27;;;11.98;;
61915;SDS011;47868;51.326;6.550;2023-01-24T15:54:11;15.90;;;12.07;;
61915;SDS011;47868;51.326;6.550;2023-01-24T15:56:39;15.98;;;12.30;;
61915;SDS011;47868;51.326;6.550;2023-01-24T15:59:12;12.68;;;11.32;;
61915;SDS011;47868;51.326;6.550;2023-01-24T16:01:42;13.00;;;11.13;;
61915;SDS011;47868;51.326;6.550;2023-01-24T16:04:12;14.57;;;11.73;;
61915;SDS011;47868;51.326;6.550;2023-01-24T16:06:39;13.13;;;11.55;;
61915;SDS011;47868;51.326;6.550;2023-01-24T16:09:05;18.20;;;14.68;;
61915;SDS011;47868;51.326;6.550;2023-01-24T16:11:31;17.15;;;12.20;;
61915;SDS011;47868;51.326;6.550;2023-01-24T16:13:57;14.30;;;12.80;;
61915;SDS011;47868;51.326;6.550;2023-01-24T16:16:23;14.10;;;12.00;;
61915;SDS011;47868;51.326;6.550;2023-01-24T16:18:49;13.00;;;11.68;;
61915;SDS011;47868;51.326;6.550;2023-01-24T16:21:15;12.77;;;11.48;;
61915;SDS011;47868;51.326;6.550;2023-01-24T16:23:40;13.45;;;12.05;;
61915;SDS011;47868;51.326;6.550;2023-01-24T16:26:07;15.65;;;11.98;;
61915;SDS011;47868;51.326;6.550;2023-01-24T16:28:47;14.10;;;12.60;;
61915;SDS011;47868;51.326;6.550;2023-01-24T16:31:13;13.05;;;11.25;;
61915;SDS011;47868;51.326;6.550;2023-01-24T16:33:39;15.18;;;12.05;;
61915;SDS011;47868;51.326;6.550;2023-01-24T16:36:05;13.27;;;11.45;;
61915;SDS011;47868;51.326;6.550;2023-01-24T16:38:31;14.45;;;12.07;;
61915;SDS011;47868;51.326;6.550;2023-01-24T16:40:56;16.13;;;13.02;;
61915;SDS011;47868;51.326;6.550;2023-01-24T16:43:22;16.10;;;12.55;;
61915;SDS011;47868;51.326;6.550;2023-01-24T16:45:49;14.45;;;12.63;;
61915;SDS011;47868;51.326;6.550;2023-01-24T16:48:16;14.10;;;12.63;;
61915;SDS011;47868;51.326;6.550;2023-01-24T16:50:43;13.32;;;12.02;;
61915;SDS011;47868;51.326;6.550;2023-01-24T16:53:10;15.27;;;12.77;;
61915;SDS011;47868;51.326;6.550;2023-01-24T16:55:37;15.40;;;12.85;;
61915;SDS011;47868;51.326;6.550;2023-01-24T16:58:12;13.57;;;12.15;;
61915;SDS011;47868;51.326;6.550;2023-01-24T17:00:38;15.63;;;12.50;;
61915;SDS011;47868;51.326;6.550;2023-01-24T17:03:03;14.43;;;12.52;;
61915;SDS011;47868;51.326;6.550;2023-01-24T17:05:29;13.68;;;12.23;;
61915;SDS011;47868;51.326;6.550;2023-01-24T17:07:55;13.57;;;12.25;;
61915;SDS011;47868;51.326;6.550;2023-01-24T17:10:22;13.95;;;12.55;;
61915;SDS011;47868;51.326;6.550;2023-01-24T17:12:49;15.57;;;12.65;;
61915;SDS011;47868;51.326;6.550;2023-01-24T17:15:14;16.92;;;12.57;;
61915;SDS011;47868;51.326;6.550;2023-01-24T17:17:41;14.23;;;12.73;;
61915;SDS011;47868;51.326;6.550;2023-01-24T17:20:07;14.52;;;13.05;;